Terminal Aerodrome Forecast
Issued by NWS

Home | Current Version | Previous Version | Text Only | Print | Product List | Glossary On
Versions: 1 2 3 4 5 6 7 8 9 10 11 12 13 14 15 16 17 18 19 20 21 22 23 24 25 26
000
FTAK31 PAFA 161429 AAA
TAFATA
TAF AMD
PATA 161429Z 1614/1712 03003KT P6SM FEW003 OVC090
      TEMPO 1614/1617 2SM BR BKN003
     FM161700 VRB03KT P6SM BKN035 OVC100
     FM170000 09004KT P6SM BKN120=

USA.gov is the U.S. government's official web portal to all federal, state and local government web resources and services.